Logo AVAMET
Benvolgut visitant, si us plau, ingressa Recuperar contrasenya
AVAMET paisatges

Inforatge Massamagrell

Dades diàries. Acumulats / Últims 30 dies disponibles

Data Temperatura (°C) Humitat rel. (%) Pressió rel. (hPa) Vent (km/h) Precipitació
Mínima Mitjana Màxima Amplitud
tèrmica
Mínima Mitjana Màxima Mínima Mitjana Màxima Predom. Mitjana Ràfega
màxima
Total
(mm)
Índex-n
Mínima Mitjana Màxima Mínima Mitjana Màxima n
0 a 1
P0 max
mm 5'
Dades mensuals acumulades fins l'últim dia disponible
04/2020 7,2 10,1 12,2 13,3 15,6 17,3 18,7 11,5 47 79 92 1.011 1.016 1.022   7,1 33,8 1,0
Dades anuals acumulades fins l'últim dia disponible
2020 1,1 8,2 15,2 12,6 9,6 17,7 26,3 25,2 0 74 98 999 1.023 1.036   7,9 86,9 151,4
Últims 30 dies disponibles
04-04-2020 7,2     12,8     16,4 9,2 64 80 87 1.019 1.021 1.022 E 6,0 27,4 0,0
03-04-2020 9,0     13,2     18,5 9,5 47 77 92 1.016 1.018 1.020 WSW 6,8 30,6 0,4
02-04-2020 11,8     13,0     15,6 3,8 70 79 86 1.012 1.014 1.017 NE 6,3 30,6 0,0
01-04-2020 12,2     14,3     18,7 6,5 64 81 91 1.011 1.012 1.014 NNE 9,3 33,8 0,6
31-03-2020 7,2     10,7     16,2 9,0 73 85 95 1.010 1.012 1.015 S 12,9 41,8 19,2 0,35 1,00
30-03-2020 7,9     12,1     14,9 7,0 60 73 87 1.013 1.015 1.016 NE 7,9 30,6 0,8
29-03-2020 7,3     14,2     22,0 14,7 35 67 86 1.013 1.017 1.021 WSW 7,7 27,4 0,0
28-03-2020 3,9     10,6     16,2 12,3 50 72 86 1.018 1.019 1.021 W 5,6 27,4 0,0
27-03-2020 6,4     9,1     12,4 6,0 65 79 90 1.013 1.015 1.018 NW 5,0 25,7 6,8 0,18 0,40
26-03-2020 6,1     10,4     16,3 10,2 38 72 91 1.008 1.011 1.015 NE 7,7 38,6 0,0
25-03-2020 7,1     10,0     11,9 4,8 74 80 89 1.015 1.018 1.019 NNE 7,7 38,6 1,0
24-03-2020 11,8     13,7     14,6 2,8 69 79 88 1.017 1.019 1.020 NE 22,2 53,1 0,0
23-03-2020 12,1     13,8     16,3 4,2 71 87 92 1.016 1.018 1.019 NNE 13,0 38,6 6,6 0,51 0,60
22-03-2020 11,2     13,2     15,3 4,1 71 84 93 1.013 1.014 1.017 NE 8,2 29,0 4,8 0,08 0,40
21-03-2020 9,5     12,8     14,5 5,0 72 82 88 1.013 1.016 1.019 NE 5,6 24,1 0,0
20-03-2020 12,6     13,7     14,9 2,3 73 81 87 1.019 1.020 1.022 NE 12,1 33,8 0,0
19-03-2020 11,0     13,3     15,9 4,9 74 84 89 1.022 1.024 1.027 NE 8,0 27,4 0,0
18-03-2020 11,9     14,1     15,9 4,0 70 80 88 1.026 1.028 1.030 NE 9,8 33,8 0,0
17-03-2020 10,1     12,8     14,8 4,7 83 92 96 1.021 1.026 1.030 NNE 10,8 51,5 19,0 0,50 1,20
16-03-2020 9,9     12,4     14,8 4,9 75 85 91 1.012 1.015 1.021 E 9,8 38,6 6,8 0,54 0,60
15-03-2020 9,3     13,9     17,5 8,2 68 83 90 1.016 1.019 1.022 E 6,4 30,6 0,0
14-03-2020 9,7     13,6     17,5 7,8 66 81 88 1.020 1.021 1.023 E 6,0 27,4 0,0
13-03-2020 11,4     14,6     17,8 6,4 65 81 95 1.020 1.021 1.023 NE 8,4 37,0 0,0
12-03-2020 10,7     14,2     18,1 7,4 73 83 92 1.018 1.021 1.023 NE 5,6 19,3 0,0
11-03-2020 9,6     14,9     21,3 11,7 51 71 81 1.023 1.024 1.025 W 5,0 20,9 0,0
10-03-2020 10,6     14,8     17,4 6,8 38 61 72 1.024 1.025 1.028 W 4,0 24,1 0,0
09-03-2020 9,7     16,1     22,9 13,2 27 50 77 1.020 1.023 1.025 NW 10,6 53,1 0,0
08-03-2020 12,6     15,3     17,8 5,2 44 57 71 1.022 1.024 1.026 NE 2,9 29,0 0,0
07-03-2020 10,0     13,9     19,7 9,7 36 47 67 1.021 1.023 1.025 WNW 11,4 46,7 0,0
06-03-2020 9,2     14,4     18,9 9,7 23 44 71 1.013 1.016 1.022 NW 14,3 69,2 0,0
Últims 13 mesos disponibles
03/2020 3,9 10,0 15,2 13,9 11,9 17,7 25,5 21,6 44 71 92 1.007 1.018 1.028 NE 10,0 86,9 65,4
02/2020 4,4 8,5 11,8 13,6 14,4 19,9 26,3 21,9 49 73 89 1.014 1.026 1.034 W 5,9 56,3 0,4
01/2020 1,1 5,9 14,1 10,3 9,6 15,8 22,9 21,8 63 77 95 1.017 1.026 1.033 W 7,9 85,3 84,6
12/2019 3,7 9,4 16,7 13,3 13,2 18,1 24,8 21,1 52 72 91 1.002 1.020 1.034 WSW 9,1 85,3 54,8
11/2019 4,7 11,1 20,7 15,4 15,9 20,1 28,8 24,1 42 57 82 999 1.011 1.019 WSW 10,2 57,9 1,4
10/2019 9,9 15,1 20,5 19,7 17,4 24,7 29,4 19,5 48 72 86 1.008 1.018 1.023 W 6,0 38,9 23,6
09/2019 15,5 19,6 23,2 23,4 21,4 27,1 35,3 19,8 47 74 84 1.011 1.019 1.026 S 8,1 68,5 76,8
08/2019 17,4 21,7 26,0 25,8 26,5 29,8 42,2 24,8 44 72 82 1.013 1.018 1.022 S 8,1 61,1 5,0
07/2019 19,8 21,7 24,1 26,1 27,6 30,0 37,6 17,8 53 69 81 1.006 1.015 1.023 SSE 7,8 50,0 14,0
06/2019 11,4 17,3 21,6 22,0 20,4 25,9 34,1 22,7 48 68 82 1.010 1.017 1.023 SE 8,5 59,6 0,0
05/2019 8,5 13,8 19,1 18,2 17,8 22,3 33,1 24,6 47 69 85 1.006 1.016 1.026 SSE 7,9 55,6 26,6
04/2019 7,4 10,9 14,3 15,1 15,5 19,7 30,1 22,7 46 67 95 1.000 1.014 1.026 SSO 10,3 70,9 43,2
03/2019 4,8 8,2 14,2 13,7 9,6 19,0 29,1 24,3 44 63 83 1.012 1.024 1.031 SSO 6,9 61,1 12,8
Tots els anys disponibles
2019 0,5 13,1 26,0 17,7 9,6 22,4 42,2 41,7 33 68 95 995 1.018 1.035 SSO 8,0 85,3 258,6
Temperatura (°C)
Humitat relativa (%)
Velocitat del vent i ràfega màxima (km/h)
Direcció del vent (°)
Pressió (hPa)
Precipitació (mm)
Nota sobre les dades: s'avisa a l'usuari de la provisionalitat i no oficialitat d'aquestes dades
Logo AVAMET blanc
Web allotjada a Sollutia
Llicència de Creative CommonsLa web d'AVAMET i els seus continguts estan subjectes a una llicència de
Reconeixement - No Comercial - Compartir igual
Últimes estacions:  Altea - Com. Regants (Soci), Almoines (Inforatge), Beniparrell (Inforatge), Albal (Inforatge), Almussafes - Parc Industrial (Inforatge), La Vilavella (Soci), la Serratella (soci) - - -